createdAt,value
2022-09-12T00:02:20.132Z,12.00
2022-09-12T00:04:46.810Z,12.00
2022-09-12T00:07:13.721Z,12.00
2022-09-12T00:09:40.366Z,11.90
2022-09-12T00:12:07.472Z,11.90
2022-09-12T00:14:34.696Z,11.80
2022-09-12T00:17:01.649Z,11.80
2022-09-12T00:19:28.973Z,11.80
2022-09-12T00:21:55.748Z,11.80
2022-09-12T00:24:22.460Z,11.80
2022-09-12T00:26:49.411Z,11.70
2022-09-12T00:29:17.402Z,11.70
2022-09-12T00:31:44.090Z,11.70
2022-09-12T00:34:13.551Z,11.70
2022-09-12T00:36:41.666Z,11.60
2022-09-12T00:39:09.282Z,11.60
2022-09-12T00:41:38.390Z,11.60
2022-09-12T00:44:23.944Z,11.50
2022-09-12T00:47:00.854Z,11.50
2022-09-12T00:49:35.421Z,11.50
2022-09-12T00:52:10.211Z,11.50
2022-09-12T00:54:55.995Z,11.40
2022-09-12T00:57:25.639Z,11.40
2022-09-12T01:00:01.266Z,11.30
2022-09-12T01:02:28.195Z,11.30
2022-09-12T01:04:55.875Z,11.30
2022-09-12T01:07:22.626Z,11.20
2022-09-12T01:09:49.696Z,11.20
2022-09-12T01:12:16.747Z,11.10
2022-09-12T01:14:43.400Z,11.00
2022-09-12T01:17:15.216Z,11.00
2022-09-12T01:19:51.291Z,11.00
2022-09-12T01:22:39.376Z,10.90
2022-09-12T01:25:21.093Z,10.90
2022-09-12T01:28:02.720Z,10.90
2022-09-12T01:30:40.536Z,10.80
2022-09-12T01:33:31.989Z,10.80
2022-09-12T01:36:04.922Z,10.80
2022-09-12T01:38:31.539Z,10.70
2022-09-12T01:41:17.268Z,10.70
2022-09-12T01:43:44.293Z,10.70
2022-09-12T01:46:15.321Z,10.70
2022-09-12T01:49:00.226Z,10.70
2022-09-12T01:51:32.845Z,10.70
2022-09-12T01:54:11.184Z,10.70
2022-09-12T01:56:39.380Z,10.70
2022-09-12T01:59:09.568Z,10.60
2022-09-12T02:01:44.665Z,10.60
2022-09-12T02:04:14.218Z,10.60
2022-09-12T02:06:47.527Z,10.60
2022-09-12T02:09:29.569Z,10.50
2022-09-12T02:11:58.771Z,10.50
2022-09-12T02:14:30.280Z,10.50
2022-09-12T02:16:59.858Z,10.40
2022-09-12T02:19:33.368Z,10.40
2022-09-12T02:22:01.657Z,10.40
2022-09-12T02:24:30.340Z,10.40
2022-09-12T02:26:59.935Z,10.30
2022-09-12T02:29:27.100Z,10.30
2022-09-12T02:31:56.721Z,10.30
2022-09-12T02:34:26.270Z,10.20
2022-09-12T02:37:03.165Z,10.20
2022-09-12T02:39:29.936Z,10.10
2022-09-12T02:41:59.136Z,10.10
2022-09-12T02:44:27.070Z,10.00
2022-09-12T02:46:57.038Z,10.00
2022-09-12T02:49:24.182Z,10.00
2022-09-12T02:51:50.916Z,9.90
2022-09-12T02:54:18.222Z,9.90
2022-09-12T02:56:45.702Z,9.90
2022-09-12T02:59:14.266Z,9.80
2022-09-12T03:01:52.953Z,9.80
2022-09-12T03:04:19.805Z,9.80
2022-09-12T03:07:03.514Z,9.80
2022-09-12T03:09:36.535Z,9.70
2022-09-12T03:12:09.641Z,9.70
2022-09-12T03:14:36.516Z,9.70
2022-09-12T03:17:06.041Z,9.60
2022-09-12T03:19:42.013Z,9.60
2022-09-12T03:22:27.769Z,9.60
2022-09-12T03:25:01.955Z,9.60
2022-09-12T03:27:31.575Z,9.50
2022-09-12T03:29:58.416Z,9.50
2022-09-12T03:32:41.727Z,9.50
2022-09-12T03:35:08.750Z,9.40
2022-09-12T03:37:35.381Z,9.40
2022-09-12T03:40:02.654Z,9.40
2022-09-12T03:42:29.641Z,9.40
2022-09-12T03:44:56.317Z,9.30
2022-09-12T03:47:23.223Z,9.30
2022-09-12T03:49:50.229Z,9.30
2022-09-12T03:52:17.405Z,9.30
2022-09-12T03:54:44.562Z,9.20
2022-09-12T03:57:11.483Z,9.20
2022-09-12T03:59:38.335Z,9.20
2022-09-12T04:02:05.844Z,9.20
2022-09-12T04:04:32.727Z,9.20
2022-09-12T04:06:59.368Z,9.10
2022-09-12T04:09:26.511Z,9.10
2022-09-12T04:11:53.190Z,9.10
2022-09-12T04:14:19.846Z,9.00
2022-09-12T04:16:47.141Z,9.00
2022-09-12T04:19:14.207Z,9.00
2022-09-12T04:21:42.290Z,9.00
2022-09-12T04:24:09.632Z,9.00
2022-09-12T04:26:36.596Z,8.90
2022-09-12T04:29:03.528Z,8.90
2022-09-12T04:31:30.625Z,8.90
2022-09-12T04:33:58.219Z,8.80
2022-09-12T04:36:25.730Z,8.80
2022-09-12T04:38:52.898Z,8.80
2022-09-12T04:41:20.758Z,8.80
2022-09-12T04:43:48.352Z,8.80
2022-09-12T04:46:17.528Z,8.70
2022-09-12T04:48:44.264Z,8.70
2022-09-12T04:51:18.149Z,8.70
2022-09-12T04:53:47.915Z,8.70
2022-09-12T04:56:14.719Z,8.70
2022-09-12T04:58:42.338Z,8.60
2022-09-12T05:01:10.489Z,8.60
2022-09-12T05:03:40.717Z,8.60
2022-09-12T05:06:09.078Z,8.60
2022-09-12T05:08:36.468Z,8.60
2022-09-12T05:11:05.028Z,8.60
2022-09-12T05:13:35.435Z,8.60
2022-09-12T05:16:03.769Z,8.60
2022-09-12T05:18:33.991Z,8.60
2022-09-12T05:21:02.541Z,8.60
2022-09-12T05:23:29.188Z,8.70
2022-09-12T05:25:57.636Z,8.70
2022-09-12T05:28:25.846Z,8.70
2022-09-12T05:31:02.934Z,8.80
2022-09-12T05:33:30.207Z,8.80
2022-09-12T05:35:59.257Z,8.90
2022-09-12T05:38:29.046Z,8.90
2022-09-12T05:41:14.636Z,9.00
2022-09-12T05:43:45.140Z,9.00
2022-09-12T05:46:14.075Z,9.10
2022-09-12T05:48:41.616Z,9.20
2022-09-12T05:51:10.692Z,9.20
2022-09-12T05:53:40.229Z,9.30
2022-09-12T05:56:26.352Z,9.40
2022-09-12T05:58:57.678Z,9.40
2022-09-12T06:01:29.705Z,9.50
2022-09-12T06:03:57.716Z,9.60
2022-09-12T06:06:25.187Z,9.70
2022-09-12T06:08:55.148Z,9.70
2022-09-12T06:11:23.297Z,9.80
2022-09-12T06:13:51.063Z,9.90
2022-09-12T06:16:20.975Z,10.00
2022-09-12T06:18:58.516Z,10.10
2022-09-12T06:21:26.869Z,10.30
2022-09-12T06:23:54.234Z,10.40
2022-09-12T06:26:23.660Z,10.60
2022-09-12T06:28:50.682Z,10.80
2022-09-12T06:31:21.302Z,10.90
2022-09-12T06:33:49.347Z,11.10
2022-09-12T06:36:17.495Z,11.30
2022-09-12T06:38:48.616Z,11.40
2022-09-12T06:41:15.953Z,11.60
2022-09-12T06:43:43.195Z,11.80
2022-09-12T06:46:10.540Z,12.00
2022-09-12T06:48:41.561Z,12.10
2022-09-12T06:51:16.353Z,12.30
2022-09-12T06:53:44.474Z,12.50
2022-09-12T06:56:12.567Z,12.60
2022-09-12T06:58:39.995Z,12.80
2022-09-12T07:01:17.468Z,13.00
2022-09-12T07:03:48.426Z,13.20
2022-09-12T07:06:15.931Z,13.30
2022-09-12T07:08:43.050Z,13.40
2022-09-12T07:11:15.000Z,13.60
2022-09-12T07:13:42.500Z,13.70
2022-09-12T07:16:10.312Z,13.90
2022-09-12T07:18:40.997Z,14.00
2022-09-12T07:21:10.716Z,14.20
2022-09-12T07:23:38.271Z,14.30
2022-09-12T07:26:05.061Z,14.50
2022-09-12T07:28:32.930Z,14.60
2022-09-12T07:31:06.386Z,14.80
2022-09-12T07:33:34.692Z,14.90
2022-09-12T07:36:03.778Z,15.00
2022-09-12T07:38:30.922Z,15.20
2022-09-12T07:40:58.008Z,15.30
2022-09-12T07:43:25.153Z,15.50
2022-09-12T07:45:58.163Z,15.60
2022-09-12T07:48:25.299Z,15.80
2022-09-12T07:51:00.003Z,15.90
2022-09-12T07:53:27.456Z,16.10
2022-09-12T07:55:56.901Z,16.20
2022-09-12T07:58:25.145Z,16.30
2022-09-12T08:00:52.531Z,16.40
2022-09-12T08:03:42.713Z,16.50
2022-09-12T08:06:14.118Z,16.60
2022-09-12T08:08:40.795Z,16.70
2022-09-12T08:11:09.482Z,16.80
2022-09-12T08:13:37.205Z,16.90
2022-09-12T08:16:06.718Z,17.00
2022-09-12T08:18:35.245Z,17.10
2022-09-12T08:21:03.161Z,17.20
2022-09-12T08:23:29.993Z,17.20
2022-09-12T08:25:58.463Z,17.30
2022-09-12T08:28:26.086Z,17.30
2022-09-12T08:30:53.380Z,17.50
2022-09-12T08:33:20.756Z,17.60
2022-09-12T08:35:47.684Z,17.70
2022-09-12T08:38:14.741Z,17.70
2022-09-12T08:40:54.298Z,17.80
2022-09-12T08:43:35.767Z,17.80
2022-09-12T08:46:09.079Z,17.90
2022-09-12T08:48:36.461Z,18.10
2022-09-12T08:51:05.084Z,18.10
2022-09-12T08:53:32.327Z,18.30
2022-09-12T08:56:01.248Z,18.40
2022-09-12T08:58:29.171Z,18.40
2022-09-12T09:00:57.614Z,18.50
2022-09-12T09:03:29.550Z,18.60
2022-09-12T09:05:59.408Z,18.60
2022-09-12T09:08:49.466Z,18.70
2022-09-12T09:11:34.460Z,18.80
2022-09-12T09:14:42.643Z,18.80
2022-09-12T09:17:11.953Z,18.90
2022-09-12T09:19:42.465Z,19.00
2022-09-12T09:22:29.242Z,19.10
2022-09-12T09:24:59.630Z,19.20
2022-09-12T09:27:40.607Z,19.40
2022-09-12T09:30:13.289Z,19.50
2022-09-12T09:32:41.371Z,19.80
2022-09-12T09:35:36.252Z,19.90
2022-09-12T09:38:24.673Z,20.00
2022-09-12T09:40:51.511Z,20.10
2022-09-12T09:43:27.409Z,20.20
2022-09-12T09:45:54.430Z,20.30
2022-09-12T09:48:24.367Z,20.30
2022-09-12T09:50:51.385Z,20.30
2022-09-12T09:53:26.492Z,20.40
2022-09-12T09:55:55.120Z,20.60
2022-09-12T09:58:29.466Z,20.70
2022-09-12T10:01:00.690Z,20.80
2022-09-12T10:03:32.380Z,20.80
2022-09-12T10:06:05.944Z,20.90
2022-09-12T10:08:37.630Z,20.90
2022-09-12T10:11:06.212Z,20.90
2022-09-12T10:13:43.507Z,21.00
2022-09-12T10:16:22.524Z,20.90
2022-09-12T10:18:51.100Z,20.80
2022-09-12T10:21:20.883Z,20.80
2022-09-12T10:23:48.302Z,20.90
2022-09-12T10:26:16.289Z,20.90
2022-09-12T10:28:46.029Z,20.90
2022-09-12T10:31:17.771Z,21.00
2022-09-12T10:33:47.699Z,21.10
2022-09-12T10:36:15.298Z,21.10
2022-09-12T10:38:48.835Z,21.10
2022-09-12T10:41:15.765Z,21.10
2022-09-12T10:43:42.538Z,21.20
2022-09-12T10:46:17.830Z,21.40
2022-09-12T10:48:52.118Z,21.50
2022-09-12T10:51:24.844Z,21.60
2022-09-12T10:53:52.568Z,21.60
2022-09-12T10:56:22.560Z,21.60
2022-09-12T10:59:02.014Z,21.60
2022-09-12T11:01:48.340Z,21.80
2022-09-12T11:04:24.423Z,21.80
2022-09-12T11:06:51.392Z,21.80
2022-09-12T11:09:37.147Z,21.90
2022-09-12T11:12:06.967Z,21.80
2022-09-12T11:14:36.711Z,21.90
2022-09-12T11:17:22.658Z,22.00
2022-09-12T11:20:03.568Z,22.10
2022-09-12T11:22:53.876Z,22.20
2022-09-12T11:25:23.850Z,22.20
2022-09-12T11:28:09.281Z,22.30
2022-09-12T11:30:56.470Z,22.20
2022-09-12T11:33:37.673Z,22.00
2022-09-12T11:36:10.715Z,21.80
2022-09-12T11:38:44.737Z,21.70
2022-09-12T11:41:26.592Z,21.60
2022-09-12T11:44:14.265Z,21.60
2022-09-12T11:46:42.642Z,21.70
2022-09-12T11:49:09.220Z,21.80
2022-09-12T11:51:40.901Z,21.80
2022-09-12T11:54:16.913Z,21.80
2022-09-12T11:56:46.150Z,21.80
2022-09-12T11:59:18.364Z,21.80
2022-09-12T12:01:48.852Z,21.90
2022-09-12T12:04:18.004Z,21.90
2022-09-12T12:07:02.082Z,21.90
2022-09-12T12:09:28.957Z,21.90
2022-09-12T12:12:33.228Z,21.80
2022-09-12T12:15:00.787Z,21.70
2022-09-12T12:17:29.563Z,21.70
2022-09-12T12:20:05.532Z,21.70
2022-09-12T12:22:36.044Z,21.60
2022-09-12T12:25:06.254Z,21.70
2022-09-12T12:27:48.377Z,21.70
2022-09-12T12:30:38.756Z,21.80
2022-09-12T12:33:13.322Z,21.80
2022-09-12T12:36:05.777Z,21.80
2022-09-12T12:38:33.810Z,21.80
2022-09-12T12:41:20.678Z,21.90
2022-09-12T12:43:48.208Z,21.90
2022-09-12T12:46:15.782Z,22.00
2022-09-12T12:48:51.386Z,22.10
2022-09-12T12:51:39.471Z,22.10
2022-09-12T12:54:28.137Z,22.10
2022-09-12T12:57:02.936Z,22.20
2022-09-12T12:59:29.794Z,22.30
2022-09-12T13:01:58.102Z,22.40
2022-09-12T13:04:26.783Z,22.60
2022-09-12T13:07:07.757Z,22.70
2022-09-12T13:09:39.885Z,22.80
2022-09-12T13:12:12.766Z,22.90
2022-09-12T13:14:42.770Z,22.90
2022-09-12T13:17:15.772Z,23.00
2022-09-12T13:19:45.015Z,23.00
2022-09-12T13:22:11.686Z,23.00
2022-09-12T13:24:54.260Z,23.00
2022-09-12T13:27:23.027Z,22.80
2022-09-12T13:29:49.970Z,22.90
2022-09-12T13:32:18.266Z,22.90
2022-09-12T13:34:58.838Z,22.90
2022-09-12T13:37:25.503Z,23.10
2022-09-12T13:40:07.441Z,23.20
2022-09-12T13:42:56.452Z,23.30
2022-09-12T13:45:24.694Z,23.40
2022-09-12T13:47:58.859Z,23.50
2022-09-12T13:50:27.854Z,23.60
2022-09-12T13:52:56.052Z,23.60
2022-09-12T13:55:29.213Z,23.70
2022-09-12T13:57:57.297Z,23.70
2022-09-12T14:00:24.942Z,23.70
2022-09-12T14:06:52.427Z,23.60
2022-09-12T14:09:31.127Z,23.60
2022-09-12T14:11:58.496Z,23.60
2022-09-12T14:14:32.984Z,23.50
2022-09-12T14:17:02.820Z,23.60
2022-09-12T14:19:29.498Z,23.60
2022-09-12T14:21:57.591Z,23.50
2022-09-12T14:24:24.442Z,23.50
2022-09-12T14:26:52.859Z,23.40
2022-09-12T14:29:31.170Z,23.30
2022-09-12T14:32:02.555Z,23.30
2022-09-12T14:34:29.530Z,23.20
2022-09-12T14:36:57.341Z,23.10
2022-09-12T14:39:44.543Z,23.10
2022-09-12T14:42:36.155Z,23.00
2022-09-12T14:45:06.301Z,23.00
2022-09-12T14:48:17.043Z,22.90
2022-09-12T14:50:44.084Z,22.80
2022-09-12T14:53:17.191Z,22.70
2022-09-12T14:55:57.488Z,22.70
2022-09-12T14:58:26.728Z,22.70
2022-09-12T15:00:53.453Z,22.70
2022-09-12T15:03:24.202Z,22.80
2022-09-12T15:05:51.110Z,22.70
2022-09-12T15:08:17.793Z,22.70
2022-09-12T15:10:44.807Z,22.70
2022-09-12T15:13:16.181Z,22.70
2022-09-12T15:15:44.278Z,22.50
2022-09-12T15:18:11.106Z,22.60
2022-09-12T15:20:41.879Z,22.50
2022-09-12T15:23:35.672Z,22.50
2022-09-12T15:26:03.099Z,22.50
2022-09-12T15:28:30.887Z,22.50
2022-09-12T15:30:58.046Z,22.60
2022-09-12T15:33:25.289Z,22.50
2022-09-12T15:35:54.040Z,22.50
2022-09-12T15:38:25.764Z,22.50
2022-09-12T15:40:54.145Z,22.50
2022-09-12T15:43:22.052Z,22.50
2022-09-12T15:45:51.400Z,22.40
2022-09-12T15:48:18.950Z,22.30
2022-09-12T15:50:45.832Z,22.30
2022-09-12T15:53:14.667Z,22.20
2022-09-12T15:55:41.752Z,22.10
2022-09-12T15:58:09.140Z,22.10
2022-09-12T16:00:36.061Z,22.00
2022-09-12T16:03:02.877Z,22.00
2022-09-12T16:05:31.151Z,21.90
2022-09-12T16:07:58.390Z,21.80
2022-09-12T16:10:27.445Z,21.80
2022-09-12T16:12:54.163Z,21.80
2022-09-12T16:15:22.531Z,21.70
2022-09-12T16:17:49.673Z,21.50
2022-09-12T16:20:16.410Z,21.50
2022-09-12T16:22:43.080Z,21.40
2022-09-12T16:25:10.440Z,21.30
2022-09-12T16:27:37.805Z,21.30
2022-09-12T16:30:06.067Z,21.20
2022-09-12T16:32:33.332Z,21.20
2022-09-12T16:35:00.047Z,21.10
2022-09-12T16:37:26.722Z,21.00
2022-09-12T16:39:53.800Z,21.00
2022-09-12T16:42:20.552Z,20.90
2022-09-12T16:44:48.332Z,20.80
2022-09-12T16:47:15.705Z,20.80
2022-09-12T16:49:42.637Z,20.80
2022-09-12T16:52:09.420Z,20.70
2022-09-12T16:54:36.288Z,20.70
2022-09-12T16:57:05.384Z,20.70
2022-09-12T16:59:33.095Z,20.60
2022-09-12T17:02:00.394Z,20.50
2022-09-12T17:04:27.513Z,20.50
2022-09-12T17:06:57.768Z,20.40
2022-09-12T17:09:24.537Z,20.30
2022-09-12T17:11:52.651Z,20.20
2022-09-12T17:14:19.278Z,20.10
2022-09-12T17:16:51.497Z,20.00
2022-09-12T17:19:20.169Z,19.90
2022-09-12T17:21:48.860Z,19.80
2022-09-12T17:24:16.932Z,19.70
2022-09-12T17:26:44.185Z,19.60
2022-09-12T17:29:11.710Z,19.50
2022-09-12T17:31:40.313Z,19.30
2022-09-12T17:34:07.341Z,19.20
2022-09-12T17:36:34.224Z,19.10
2022-09-12T17:39:04.173Z,19.00
2022-09-12T17:41:33.996Z,18.80
2022-09-12T17:44:01.875Z,18.80
2022-09-12T17:46:34.790Z,18.60
2022-09-12T17:49:02.556Z,18.50
2022-09-12T17:51:31.112Z,18.30
2022-09-12T17:54:00.049Z,18.20
2022-09-12T17:56:28.060Z,18.10
2022-09-12T17:58:55.560Z,18.00
2022-09-12T18:01:41.089Z,17.80
2022-09-12T18:04:07.877Z,17.80
2022-09-12T18:06:34.569Z,17.60
2022-09-12T18:09:02.532Z,17.40
2022-09-12T18:11:29.526Z,17.30
2022-09-12T18:13:57.856Z,17.20
2022-09-12T18:16:24.906Z,17.00
2022-09-12T18:18:51.610Z,16.90
2022-09-12T18:21:18.458Z,16.80
2022-09-12T18:23:45.893Z,16.70
2022-09-12T18:26:13.764Z,16.60
2022-09-12T18:28:43.121Z,16.50
2022-09-12T18:31:14.591Z,16.40
2022-09-12T18:33:41.521Z,16.30
2022-09-12T18:36:10.664Z,16.20
2022-09-12T18:38:38.137Z,16.10
2022-09-12T18:41:05.561Z,16.10
2022-09-12T18:43:32.561Z,15.90
2022-09-12T18:46:03.249Z,15.90
2022-09-12T18:48:31.585Z,15.80
2022-09-12T18:51:02.121Z,15.70
2022-09-12T18:53:29.792Z,15.60
2022-09-12T18:56:02.814Z,15.50
2022-09-12T18:58:30.517Z,15.40
2022-09-12T19:00:58.530Z,15.40
2022-09-12T19:03:25.398Z,15.30
2022-09-12T19:05:52.422Z,15.20
2022-09-12T19:08:19.221Z,15.20
2022-09-12T19:10:53.945Z,15.10
2022-09-12T19:13:20.690Z,15.10
2022-09-12T19:15:47.447Z,15.00
2022-09-12T19:18:14.648Z,14.90
2022-09-12T19:20:42.576Z,14.80
2022-09-12T19:23:09.493Z,14.80
2022-09-12T19:25:36.293Z,14.70
2022-09-12T19:28:03.352Z,14.60
2022-09-12T19:30:29.984Z,14.60
2022-09-12T19:32:57.225Z,14.50
2022-09-12T19:35:24.184Z,14.40
2022-09-12T19:37:51.003Z,14.40
2022-09-12T19:40:20.664Z,14.30
2022-09-12T19:42:47.443Z,14.30
2022-09-12T19:45:15.209Z,14.30
2022-09-12T19:47:42.024Z,14.20
2022-09-12T19:50:08.945Z,14.10
2022-09-12T19:52:35.692Z,14.00
2022-09-12T19:55:02.408Z,14.00
2022-09-12T19:57:29.221Z,13.90
2022-09-12T19:59:55.891Z,13.90
2022-09-12T20:02:25.757Z,13.80
2022-09-12T20:04:52.553Z,13.80
2022-09-12T20:07:19.397Z,13.80
2022-09-12T20:09:46.886Z,13.70
2022-09-12T20:12:14.591Z,13.60
2022-09-12T20:14:41.765Z,13.60
2022-09-12T20:17:08.982Z,13.50
2022-09-12T20:19:35.911Z,13.50
2022-09-12T20:22:02.566Z,13.50
2022-09-12T20:24:29.543Z,13.40
2022-09-12T20:27:00.297Z,13.30
2022-09-12T20:29:27.015Z,13.30
2022-09-12T20:31:54.283Z,13.30
2022-09-12T20:34:21.285Z,13.20
2022-09-12T20:36:48.436Z,13.20
2022-09-12T20:39:16.553Z,13.10
2022-09-12T20:41:43.296Z,13.10
2022-09-12T20:44:10.124Z,13.00
2022-09-12T20:46:37.520Z,13.00
2022-09-12T20:49:05.582Z,13.00
2022-09-12T20:51:32.517Z,12.90
2022-09-12T20:54:00.317Z,12.90
2022-09-12T20:56:28.291Z,12.90
2022-09-12T20:58:55.735Z,12.80
2022-09-12T21:01:22.982Z,12.80
2022-09-12T21:03:50.234Z,12.80
2022-09-12T21:06:17.577Z,12.70
2022-09-12T21:08:45.721Z,12.70
2022-09-12T21:11:12.856Z,12.60
2022-09-12T21:13:39.543Z,12.60
2022-09-12T21:16:06.664Z,12.60
2022-09-12T21:18:34.238Z,12.50
2022-09-12T21:21:01.520Z,12.50
2022-09-12T21:23:28.254Z,12.40
2022-09-12T21:25:55.154Z,12.40
2022-09-12T21:28:22.237Z,12.40
2022-09-12T21:30:50.090Z,12.30
2022-09-12T21:33:17.889Z,12.30
2022-09-12T21:35:44.745Z,12.30
2022-09-12T21:38:11.717Z,12.30
2022-09-12T21:40:38.710Z,12.20
2022-09-12T21:43:09.229Z,12.20
2022-09-12T21:45:38.986Z,12.20
2022-09-12T21:48:05.908Z,12.10
2022-09-12T21:50:32.550Z,12.10
2022-09-12T21:52:59.970Z,12.10
2022-09-12T21:55:27.304Z,12.00
2022-09-12T21:57:54.724Z,12.00
2022-09-12T22:00:22.402Z,12.00
2022-09-12T22:02:49.562Z,11.90
2022-09-12T22:05:17.115Z,11.90
2022-09-12T22:07:45.728Z,11.80
2022-09-12T22:10:12.579Z,11.80
2022-09-12T22:12:41.814Z,11.80
2022-09-12T22:15:36.542Z,11.80
2022-09-12T22:17:59.978Z,11.70
2022-09-12T22:20:26.965Z,11.70
2022-09-12T22:23:22.397Z,11.60
2022-09-12T22:25:53.186Z,11.60
2022-09-12T22:28:20.354Z,11.60
2022-09-12T22:30:47.963Z,11.60
2022-09-12T22:33:16.906Z,11.50
2022-09-12T22:35:44.375Z,11.50
2022-09-12T22:38:11.150Z,11.50
2022-09-12T22:40:38.526Z,11.40
2022-09-12T22:43:05.495Z,11.40
2022-09-12T22:45:32.315Z,11.40
2022-09-12T22:48:01.002Z,11.30
2022-09-12T22:50:28.337Z,11.30
2022-09-12T22:52:55.278Z,11.30
2022-09-12T22:55:23.227Z,11.30
2022-09-12T22:57:50.166Z,11.20
2022-09-12T23:00:18.059Z,11.20
2022-09-12T23:02:45.366Z,11.20
2022-09-12T23:05:12.297Z,11.20
2022-09-12T23:07:39.761Z,11.10
2022-09-12T23:10:07.213Z,11.10
2022-09-12T23:12:33.920Z,11.10
2022-09-12T23:15:00.569Z,11.10
2022-09-12T23:17:27.691Z,11.00
2022-09-12T23:19:54.890Z,11.00
2022-09-12T23:22:21.598Z,11.00
2022-09-12T23:24:49.282Z,11.00
2022-09-12T23:27:16.192Z,10.90
2022-09-12T23:29:42.926Z,10.90
2022-09-12T23:32:10.779Z,10.80
2022-09-12T23:34:37.742Z,10.80
2022-09-12T23:37:05.439Z,10.80
2022-09-12T23:39:32.285Z,10.80
2022-09-12T23:42:00.254Z,10.80
2022-09-12T23:44:27.017Z,10.80
2022-09-12T23:46:54.106Z,10.70
2022-09-12T23:49:21.159Z,10.70
2022-09-12T23:51:47.801Z,10.70
2022-09-12T23:54:14.781Z,10.60
2022-09-12T23:56:41.680Z,10.70
2022-09-12T23:59:08.419Z,10.60
